Pagrindinis puslapis
METAR-TAF:

METAR-TAF

Oro uostai :

Bleibler Ranch Aerodrome

Clinton, Britų Kolumbija, Kanada

platuma: 51-15-59N, ilguma: 121-41-05W, Aukštis: 1126 m

Dabartinis oras

Ataskaita buvo paskelbta 29 minutes, ne 13:00 UTC
Vėjas 3 kt iš Pietryčių
Temperatūra -19°C
Drėgmė 84%
Slėgis 1024 hPa
Matomumas: 14.5 km
Giedras dangus

METAR: CYIN 191300Z AUTO 14003KT 9SM CLR M19/M21 A3025 RMK SLP314

Laikas: 05:29 (13:29 UTC)


TAF: trūkstamas

Orai ataskaitas ir orų prognozės (METAR, TAF).

turimą stotys yra geltonos ir raudonos taškus žemėlapyje.

Perkelti pele per norėdami pamatyti stoties vardą.

Tada spustelėkite, norėdami matyti oro stebėjimo ir prognozės.

Norėdami pakeisti žemėlapį: spustelėkite ant žalios mygtukų su juodo kryžiaus žemyn,; žalią mygtuką su brūkšneliu, jei norite nutolinti; arba žalių rodyklių gretimoms žemėlapius.


METAR-TAF: